Time;durP1;ratioP1;P1;durP2;ratioP2;P2;SDS_P1;SDS_P2;PMS_P1;PMS_P2;Temp;Humidity;BMP_temperature;BMP_pressure;BME280_temperature;BME280_humidity;BME280_pressure;Samples;Min_cycle;Max_cycle;Signal;HPM_P1;HPM_P2
2022/08/06 00:01:52;;;;;;;2.78;2.33;;;;;;;20.35;48.13;99901.47;4976051;28;20050;-76
2022/08/06 00:04:18;;;;;;;3.78;1.90;;;;;;;20.34;47.81;99906.03;4977218;28;20042;-77
2022/08/06 00:06:44;;;;;;;5.30;2.40;;;;;;;20.31;47.91;99903.66;4976015;28;20093;-77
2022/08/06 00:09:11;;;;;;;6.90;2.20;;;;;;;20.22;47.85;99896.53;4976221;28;20039;-77
2022/08/06 00:11:38;;;;;;;3.42;2.00;;;;;;;20.25;48.23;99906.22;4992160;28;20576;-76
2022/08/06 00:14:04;;;;;;;2.90;2.05;;;;;;;20.25;47.97;99907.06;4977096;28;20047;-76
2022/08/06 00:16:30;;;;;;;6.65;2.08;;;;;;;20.23;48.02;99903.66;4992081;28;20054;-76
2022/08/06 00:18:56;;;;;;;3.53;2.10;;;;;;;20.18;48.43;99897.91;4991915;28;20050;-77
2022/08/06 00:21:22;;;;;;;2.08;1.83;;;;;;;20.13;48.40;99903.00;4975746;28;20138;-76
2022/08/06 00:23:48;;;;;;;4.60;2.30;;;;;;;20.15;48.39;99917.25;4975513;28;20121;-76
2022/08/06 00:26:14;;;;;;;4.03;2.03;;;;;;;20.08;48.40;99911.66;4991799;28;20074;-77
2022/08/06 00:28:40;;;;;;;9.00;2.28;;;;;;;20.11;48.43;99922.16;4976921;28;20525;-77
2022/08/06 00:31:09;;;;;;;8.15;2.35;;;;;;;20.09;48.36;99924.22;4975563;28;20043;-77
2022/08/06 00:33:35;;;;;;;5.45;2.00;;;;;;;20.08;48.58;99927.06;4976198;28;20093;-77
2022/08/06 00:36:02;;;;;;;5.97;1.80;;;;;;;20.07;48.73;99930.81;4975569;28;20078;-77
2022/08/06 00:38:28;;;;;;;4.80;2.15;;;;;;;20.05;48.65;99933.72;4975335;28;20101;-76
2022/08/06 00:40:55;;;;;;;5.55;1.80;;;;;;;19.99;48.56;99928.94;4991616;28;20051;-76
2022/08/06 00:43:21;;;;;;;4.43;2.40;;;;;;;19.97;49.04;99931.00;4975299;28;20097;-76
2022/08/06 00:45:47;;;;;;;4.50;2.13;;;;;;;19.88;49.21;99932.00;4991287;28;20051;-77
2022/08/06 00:48:13;;;;;;;3.92;2.10;;;;;;;19.87;49.24;99939.28;4958848;28;20101;-77
2022/08/06 00:50:40;;;;;;;8.02;2.20;;;;;;;19.80;49.43;99932.84;4991176;28;20066;-77
2022/08/06 00:53:06;;;;;;;4.10;2.30;;;;;;;19.68;49.88;99919.78;4975608;28;20046;-76
2022/08/06 00:55:32;;;;;;;2.30;2.03;;;;;;;19.68;50.25;99936.06;4976049;28;20085;-77
2022/08/06 00:57:58;;;;;;;6.07;3.00;;;;;;;19.55;50.74;99941.91;4958852;28;20047;-77
2022/08/06 01:00:25;;;;;;;4.35;2.25;;;;;;;19.48;51.01;99936.28;4975096;28;20166;-76
2022/08/06 01:02:50;;;;;;;7.72;2.70;;;;;;;19.44;50.85;99932.22;4958628;28;20538;-77
2022/08/06 01:05:16;;;;;;;6.07;2.80;;;;;;;19.42;51.56;99945.94;4976202;28;20113;-77
2022/08/06 01:07:43;;;;;;;9.65;3.33;;;;;;;19.41;51.71;99944.25;4974927;28;20558;-76
2022/08/06 01:10:09;;;;;;;10.45;3.50;;;;;;;19.45;51.27;99942.06;4974729;28;20073;-77
2022/08/06 01:12:35;;;;;;;10.95;6.22;;;;;;;19.40;51.54;99947.97;4974724;28;20125;-77
2022/08/06 01:15:04;;;;;;;22.67;6.38;;;;;;;19.39;51.81;99934.59;4974644;28;20102;-78
2022/08/06 01:17:57;;;;;;;15.17;12.50;;;;;;;19.32;52.24;99947.09;4975835;28;20526;-77
2022/08/06 01:20:44;;;;;;;25.52;21.08;;;;;;;19.34;52.36;99950.50;4990930;28;20213;-76
2022/08/06 01:23:49;;;;;;;35.92;27.05;;;;;;;19.30;52.31;99939.16;4974746;28;20062;-77
2022/08/06 01:26:42;;;;;;;42.15;34.55;;;;;;;19.33;52.24;99960.50;4974059;28;20054;-77
2022/08/06 01:29:20;;;;;;;40.70;31.42;;;;;;;19.27;52.68;99954.88;4990587;28;20054;-76
2022/08/06 01:32:09;;;;;;;37.85;28.13;;;;;;;19.13;52.90;99949.06;4974368;28;20166;-76
2022/08/06 01:34:40;;;;;;;35.85;28.50;;;;;;;19.20;52.81;99970.09;4974016;28;20059;-76
2022/08/06 01:37:16;;;;;;;26.92;20.60;;;;;;;19.31;53.06;99978.78;4974386;28;20188;-75
2022/08/06 01:39:46;;;;;;;25.15;19.60;;;;;;;19.23;53.31;99973.34;4974393;28;20051;-75
2022/08/06 01:42:15;;;;;;;24.52;18.48;;;;;;;19.17;53.71;99961.28;4975454;28;20510;-77
2022/08/06 01:44:43;;;;;;;;;;;;;;;19.23;53.46;99980.63;4958491;28;20043;-76
2022/08/06 01:47:12;;;;;;;25.93;18.67;;;;;;;19.16;53.88;99975.84;4975297;28;19933;-76
2022/08/06 01:49:42;;;;;;;24.48;18.65;;;;;;;19.36;53.36;99975.56;4975281;28;20133;-76
2022/08/06 01:52:11;;;;;;;23.45;17.10;;;;;;;19.44;53.30;99972.03;4975269;28;20517;-77
2022/08/06 01:54:44;;;;;;;24.17;17.05;;;;;;;19.51;53.40;99978.50;4973773;28;20413;-77
2022/08/06 01:57:11;;;;;;;26.45;21.15;;;;;;;19.59;53.22;99976.66;4974077;28;20137;-76
2022/08/06 01:59:43;;;;;;;53.50;45.22;;;;;;;19.67;53.53;99973.19;4990038;28;20513;-77
2022/08/06 02:02:15;;;;;;;56.33;48.85;;;;;;;19.72;53.51;99969.97;4973755;28;20042;-76
2022/08/06 02:04:45;;;;;;;58.58;48.70;;;;;;;19.71;53.59;99965.53;4990167;28;20140;-76
2022/08/06 02:07:14;;;;;;;42.53;38.00;;;;;;;19.72;54.41;99980.81;4973128;28;20194;-76
2022/08/06 02:09:45;;;;;;;46.75;41.90;;;;;;;19.77;54.84;99979.28;4974788;28;20503;-76
2022/08/06 02:12:15;;;;;;;45.03;40.60;;;;;;;19.72;55.33;99980.81;4990367;28;20561;-76
2022/08/06 02:14:55;;;;;;;38.10;34.00;;;;;;;19.60;55.38;99970.25;4973613;28;20181;-75
2022/08/06 02:17:27;;;;;;;23.70;21.30;;;;;;;19.78;55.05;99986.44;4957346;28;20414;-77
2022/08/06 02:19:55;;;;;;;19.35;12.18;;;;;;;19.84;55.61;99984.91;4973456;28;20042;-76
2022/08/06 02:22:22;;;;;;;14.43;6.47;;;;;;;19.92;55.54;99992.22;4974398;28;20507;-77
2022/08/06 02:24:50;;;;;;;18.23;6.28;;;;;;;19.79;55.70;99995.41;4973279;28;20046;-76
2022/08/06 02:27:17;;;;;;;12.32;5.10;;;;;;;19.83;55.50;100002.19;4973632;28;20135;-76
2022/08/06 02:29:45;;;;;;;16.08;5.43;;;;;;;19.90;55.79;100011.38;4974137;28;20050;-77
2022/08/06 02:32:13;;;;;;;12.57;5.13;;;;;;;19.87;55.70;100011.69;4973317;28;20059;-77
2022/08/06 02:34:39;;;;;;;15.48;6.35;;;;;;;19.93;55.75;100005.59;4972954;28;20066;-76
2022/08/06 02:37:13;;;;;;;14.55;5.78;;;;;;;20.02;55.69;100004.59;4974128;28;20047;-76
2022/08/06 02:39:48;;;;;;;11.55;6.38;;;;;;;20.12;55.13;99997.16;4973403;28;20061;-76
2022/08/06 02:42:35;;;;;;;16.02;5.07;;;;;;;20.04;55.75;100024.25;4957152;28;20142;-77
2022/08/06 02:45:19;;;;;;;12.63;5.35;;;;;;;20.03;55.99;100016.31;4973253;28;20042;-77
2022/08/06 02:47:53;;;;;;;14.98;5.90;;;;;;;20.08;55.63;100008.50;4973329;28;20410;-76
2022/08/06 02:50:24;;;;;;;18.73;7.22;;;;;;;20.07;55.63;100013.09;4989339;28;20089;-77
2022/08/06 02:52:59;;;;;;;10.70;5.30;;;;;;;20.03;56.21;100010.88;4989373;28;20075;-77
2022/08/06 02:55:36;;;;;;;20.13;7.53;;;;;;;20.19;55.72;100020.91;4989121;28;20050;-78
2022/08/06 02:58:12;;;;;;;12.40;5.07;;;;;;;20.24;56.19;100021.25;4973797;28;20078;-76
2022/08/06 03:00:41;;;;;;;8.55;4.55;;;;;;;20.28;55.90;100022.63;4972915;28;20445;-76
2022/08/06 03:03:09;;;;;;;17.08;5.72;;;;;;;20.33;55.87;100006.66;4972779;28;20065;-76
2022/08/06 03:05:37;;;;;;;13.88;4.85;;;;;;;20.47;55.73;100014.13;4972335;28;20427;-77
2022/08/06 03:08:06;;;;;;;10.35;5.05;;;;;;;20.57;55.38;100013.97;4974013;28;20038;-78
2022/08/06 03:10:33;;;;;;;24.42;8.65;;;;;;;20.59;55.72;100012.78;4988926;28;20050;-77
2022/08/06 03:13:00;;;;;;;13.85;4.60;;;;;;;20.65;55.49;100011.28;4972593;28;20398;-76
2022/08/06 03:15:29;;;;;;;18.92;5.72;;;;;;;20.69;55.78;100014.50;4973939;28;20046;-76
2022/08/06 03:17:59;;;;;;;20.17;6.72;;;;;;;20.77;55.53;100014.47;4988387;28;20047;-77
2022/08/06 03:20:26;;;;;;;108.65;24.75;;;;;;;20.94;55.33;100013.41;4972311;28;20145;-77
2022/08/06 03:22:56;;;;;;;36.00;12.68;;;;;;;21.03;55.06;100016.97;4988600;28;20058;-75
2022/08/06 03:25:23;;;;;;;38.65;15.07;;;;;;;21.14;54.68;100021.16;4988706;28;20051;-76
2022/08/06 03:27:51;;;;;;;11.02;5.57;;;;;;;21.31;54.62;100017.38;4972506;28;20051;-77
2022/08/06 03:30:18;;;;;;;21.98;7.13;;;;;;;21.26;54.89;100025.22;4973240;28;20149;-78
2022/08/06 03:32:46;;;;;;;54.97;17.80;;;;;;;21.30;54.92;100010.25;4988465;28;20137;-77
2022/08/06 03:35:14;;;;;;;120.85;30.73;;;;;;;21.44;54.73;100023.16;4971699;28;20087;-78
2022/08/06 03:37:42;;;;;;;20.02;7.07;;;;;;;21.58;54.39;100022.38;4972331;28;20149;-78
2022/08/06 03:40:10;;;;;;;9.85;5.68;;;;;;;21.62;54.34;100020.16;4956266;28;20043;-77
2022/08/06 03:42:36;;;;;;;20.25;6.80;;;;;;;21.71;53.97;100012.84;4968106;28;20039;-78
2022/08/06 03:45:03;;;;;;;20.33;10.95;;;;;;;21.81;53.95;100019.75;4988046;28;20462;-76
2022/08/06 03:47:33;;;;;;;16.67;11.23;;;;;;;21.90;53.85;100020.53;4971936;28;20053;-76
2022/08/06 03:50:08;;;;;;;25.42;11.82;;;;;;;21.92;53.56;100002.13;4973352;28;20417;-78
2022/08/06 03:52:39;;;;;;;19.00;10.38;;;;;;;22.06;53.52;100017.69;4956392;28;20137;-82
2022/08/06 03:55:08;;;;;;;15.00;8.52;;;;;;;21.95;53.55;100018.13;4972365;28;20518;-78
2022/08/06 03:57:41;;;;;;;17.50;7.28;;;;;;;22.01;53.79;100014.69;4956052;28;20062;-76
2022/08/06 04:00:10;;;;;;;14.82;8.18;;;;;;;22.07;53.90;100019.38;4988568;28;20050;-78
2022/08/06 04:02:48;;;;;;;13.65;7.15;;;;;;;22.20;53.40;100020.72;4972473;28;20049;-77
2022/08/06 04:05:28;;;;;;;14.80;6.88;;;;;;;22.32;53.45;100016.53;4972391;28;20450;-77
2022/08/06 04:07:57;;;;;;;17.73;5.85;;;;;;;22.36;52.91;100009.69;4973174;28;20043;-78
2022/08/06 04:10:44;;;;;;;12.98;5.90;;;;;;;22.37;53.18;100014.09;4956016;28;20069;-77
2022/08/06 04:13:15;;;;;;;11.68;5.53;;;;;;;22.42;53.14;100014.41;4955696;28;20050;-80
2022/08/06 04:15:42;;;;;;;18.15;5.68;;;;;;;22.68;52.91;100013.13;4972132;28;20189;-77
2022/08/06 04:18:14;;;;;;;12.73;5.10;;;;;;;22.82;52.50;100004.16;4971918;28;20133;-76
2022/08/06 04:20:46;;;;;;;12.25;4.68;;;;;;;22.82;52.06;99998.69;4972265;28;20093;-77
2022/08/06 04:23:13;;;;;;;14.10;4.72;;;;;;;22.97;51.83;100005.03;4972818;28;20418;-80
2022/08/06 04:25:48;;;;;;;18.45;6.15;;;;;;;23.15;51.50;100009.28;4971686;28;20054;-78
2022/08/06 04:28:17;;;;;;;18.63;4.68;;;;;;;23.25;51.14;100001.69;4939806;28;20577;-78
2022/08/06 04:30:44;;;;;;;12.27;4.07;;;;;;;23.22;51.14;99997.44;4957662;28;20121;-78
2022/08/06 04:33:12;;;;;;;17.83;4.50;;;;;;;23.43;50.78;99993.94;4974301;28;20043;-82
2022/08/06 04:35:42;;;;;;;11.93;4.55;;;;;;;23.51;50.21;99991.13;4958724;28;20058;-84
2022/08/06 04:38:09;;;;;;;12.85;3.83;;;;;;;23.58;50.32;99990.31;4959247;28;20348;-81
2022/08/06 04:40:37;;;;;;;13.35;4.45;;;;;;;23.55;50.69;99977.94;4977188;28;20046;-79
2022/08/06 04:43:09;;;;;;;18.45;4.25;;;;;;;23.74;50.64;99988.28;4991439;28;20057;-78
2022/08/06 04:45:37;;;;;;;9.63;4.20;;;;;;;24.06;50.13;99987.97;4958989;28;20142;-80
2022/08/06 04:48:07;;;;;;;11.70;4.35;;;;;;;24.24;49.79;99982.91;4976433;28;20569;-82
2022/08/06 04:50:35;;;;;;;15.75;4.97;;;;;;;24.38;48.81;99990.19;4975422;28;20466;-79
2022/08/06 04:53:12;;;;;;;15.25;4.85;;;;;;;24.53;48.40;99983.81;4976505;28;20215;-87
2022/08/06 04:55:40;;;;;;;10.93;4.53;;;;;;;24.82;48.41;99982.75;4975272;28;20051;-79
2022/08/06 04:58:09;;;;;;;9.90;3.78;;;;;;;24.91;47.45;99984.31;4974724;28;20047;-80
2022/08/06 05:00:43;;;;;;;12.20;3.80;;;;;;;25.07;47.20;99985.88;4991125;28;20124;-79
2022/08/06 05:03:09;;;;;;;9.30;3.65;;;;;;;25.24;46.79;99983.66;4975170;28;20043;-80
2022/08/06 05:05:46;;;;;;;9.68;3.20;;;;;;;25.26;46.01;99990.63;4975274;28;20518;-80
2022/08/06 05:08:13;;;;;;;9.57;2.92;;;;;;;25.19;46.28;99985.13;4974682;28;20053;-80
2022/08/06 05:10:56;;;;;;;9.98;3.45;;;;;;;25.38;45.66;99983.53;4976247;28;20047;-80
2022/08/06 05:13:27;;;;;;;9.07;3.45;;;;;;;25.40;45.23;99989.66;4974900;28;20410;-79
2022/08/06 05:15:57;;;;;;;13.85;3.42;;;;;;;25.15;45.75;99988.47;4974618;28;20047;-80
2022/08/06 05:18:40;;;;;;;7.50;3.50;;;;;;;25.20;45.95;99980.53;4974664;28;20406;-80
2022/08/06 05:21:08;;;;;;;8.85;3.38;;;;;;;25.38;45.89;99978.06;4975015;28;20049;-79
2022/08/06 05:23:49;;;;;;;10.57;3.10;;;;;;;25.44;45.14;99987.38;4974314;28;20053;-79
2022/08/06 05:26:16;;;;;;;14.10;2.88;;;;;;;25.57;45.04;99976.47;4958504;28;20182;-80
2022/08/06 05:28:42;;;;;;;10.68;3.15;;;;;;;25.83;44.67;99980.38;4974739;28;20090;-80
2022/08/06 05:31:09;;;;;;;11.05;3.15;;;;;;;25.76;43.60;99977.56;4974426;28;20054;-79
2022/08/06 05:33:37;;;;;;;8.07;2.80;;;;;;;25.75;43.22;99978.63;4975308;28;20182;-79
2022/08/06 05:36:11;;;;;;;8.57;2.92;;;;;;;25.58;43.93;99966.38;4990262;28;20093;-80
2022/08/06 05:38:39;;;;;;;9.30;2.72;;;;;;;25.79;43.66;99974.47;4958371;28;20399;-82
2022/08/06 05:41:10;;;;;;;13.82;3.10;;;;;;;25.98;43.70;99958.28;4957727;28;20058;-81
2022/08/06 05:43:38;;;;;;;15.43;3.30;;;;;;;26.31;43.56;99956.41;4975995;28;20134;-80
2022/08/06 05:46:10;;;;;;;5.10;2.73;;;;;;;26.68;43.06;99967.84;4957956;28;20550;-81
2022/08/06 05:48:41;;;;;;;8.15;2.75;;;;;;;26.96;42.36;99961.25;4973809;28;20050;-80
2022/08/06 05:51:14;;;;;;;17.83;3.33;;;;;;;26.85;41.71;99958.13;4958044;28;20053;-80
2022/08/06 05:53:48;;;;;;;8.18;3.00;;;;;;;26.84;41.39;99959.16;4974260;28;20091;-81
2022/08/06 05:56:18;;;;;;;12.35;2.92;;;;;;;27.02;41.64;99952.16;4975474;28;20089;-80
2022/08/06 05:58:54;;;;;;;11.10;3.05;;;;;;;26.98;41.38;99956.41;4958134;28;20070;-82
2022/08/06 06:01:20;;;;;;;9.60;2.80;;;;;;;27.26;41.44;99964.34;4958266;28;20459;-83
2022/08/06 06:03:47;;;;;;;5.25;2.58;;;;;;;27.53;41.24;99954.09;4958438;28;20043;-82
2022/08/06 06:06:13;;;;;;;9.98;2.88;;;;;;;27.86;40.66;99947.63;4973965;28;20057;-80
2022/08/06 06:08:39;;;;;;;9.65;2.55;;;;;;;28.14;39.75;99959.06;4975247;28;20530;-81
2022/08/06 06:11:07;;;;;;;4.38;2.28;;;;;;;28.14;38.02;99953.59;4989952;28;20108;-80
2022/08/06 06:13:34;;;;;;;8.68;2.42;;;;;;;28.15;38.59;99947.00;4989588;28;20050;-80
2022/08/06 06:16:31;;;;;;;11.93;3.17;;;;;;;28.24;38.56;99948.41;4975063;28;20057;-79
2022/08/06 06:19:23;;;;;;;5.35;2.40;;;;;;;28.24;37.72;99945.66;4973609;28;20093;-81
2022/08/06 06:22:02;;;;;;;8.85;2.72;;;;;;;28.20;36.93;99947.19;4973182;28;20064;-81
2022/08/06 06:24:45;;;;;;;12.38;2.42;;;;;;;28.43;37.29;99948.50;4973212;28;20102;-81
2022/08/06 06:27:23;;;;;;;7.45;2.40;;;;;;;28.71;37.10;99948.88;4973266;28;20078;-80
2022/08/06 06:30:04;;;;;;;7.88;2.30;;;;;;;28.58;36.22;99943.50;4972850;28;20042;-85
2022/08/06 06:32:58;;;;;;;10.13;2.38;;;;;;;28.23;36.34;99943.97;4973406;28;20050;-81
2022/08/06 06:35:50;;;;;;;5.13;4.18;;;;;;;28.37;35.66;99944.75;4973303;28;20490;-81
2022/08/06 06:38:36;;;;;;;6.68;2.58;;;;;;;28.68;36.03;99940.25;4957110;28;20552;-81
2022/08/06 06:41:45;;;;;;;9.70;2.33;;;;;;;29.08;35.62;99935.22;4957348;28;20082;-83
2022/08/06 06:44:18;;;;;;;5.15;2.08;;;;;;;29.19;34.88;99942.69;4966520;28;20510;-80
2022/08/06 06:47:03;;;;;;;3.85;2.10;;;;;;;29.45;34.79;99924.13;4972917;28;20133;-81
2022/08/06 06:49:39;;;;;;;7.40;2.22;;;;;;;29.47;33.51;99927.50;4989520;28;20039;-79
2022/08/06 06:52:19;;;;;;;6.00;2.30;;;;;;;29.50;33.41;99927.91;4956926;28;20046;-83
2022/08/06 06:54:48;;;;;;;6.93;2.65;;;;;;;29.67;32.84;99930.84;4941070;28;20092;-79
2022/08/06 06:57:20;;;;;;;5.55;2.50;;;;;;;29.87;32.38;99924.25;4957285;28;20050;-83
2022/08/06 06:59:51;;;;;;;7.22;2.28;;;;;;;29.79;32.10;99930.06;4957346;28;20193;-82
2022/08/06 07:02:25;;;;;;;4.75;2.20;;;;;;;29.90;32.61;99921.00;4978036;28;20049;-81
2022/08/06 07:04:54;;;;;;;8.05;2.30;;;;;;;29.92;31.53;99924.38;4959644;28;20047;-81
2022/08/06 07:07:21;;;;;;;5.47;2.20;;;;;;;29.95;30.90;99919.22;4989613;28;20049;-80
2022/08/06 07:09:48;;;;;;;3.75;1.95;;;;;;;30.27;31.34;99929.97;4974256;28;20390;-80
2022/08/06 07:12:16;;;;;;;14.75;1.98;;;;;;;30.50;30.95;99920.88;4974109;28;20062;-83
2022/08/06 07:14:44;;;;;;;4.05;2.15;;;;;;;30.68;30.04;99915.25;4940868;28;20188;-82
2022/08/06 07:17:12;;;;;;;6.22;2.00;;;;;;;30.97;29.62;99915.38;4974297;28;20074;-82
2022/08/06 07:19:38;;;;;;;8.02;2.03;;;;;;;30.97;29.07;99920.91;4988241;28;20050;-82
2022/08/06 07:22:05;;;;;;;5.85;2.17;;;;;;;30.97;29.55;99915.38;4973019;28;20047;-82
2022/08/06 07:24:33;;;;;;;8.75;2.20;;;;;;;31.21;28.88;99917.00;4956465;28;20042;-79
2022/08/06 07:27:01;;;;;;;6.28;2.05;;;;;;;31.44;29.08;99920.81;4956516;28;20049;-82
2022/08/06 07:29:27;;;;;;;12.55;2.25;;;;;;;31.59;27.78;99923.88;4973870;28;20042;-79
2022/08/06 07:31:56;;;;;;;4.85;1.90;;;;;;;31.34;27.38;99915.09;4973932;28;20039;-80
2022/08/06 07:34:22;;;;;;;6.32;1.90;;;;;;;31.44;27.08;99910.63;4972212;28;20462;-79
2022/08/06 07:36:52;;;;;;;4.10;1.85;;;;;;;31.59;27.34;99906.47;4972019;28;20129;-77
2022/08/06 07:39:32;;;;;;;5.15;1.73;;;;;;;31.74;27.38;99908.69;4956833;28;20513;-81
2022/08/06 07:42:01;;;;;;;5.35;2.10;;;;;;;31.74;27.76;99903.16;4972402;28;20035;-80
2022/08/06 07:44:28;;;;;;;3.45;1.98;;;;;;;32.04;27.48;99923.09;4973374;28;20050;-79
2022/08/06 07:46:58;;;;;;;3.72;2.33;;;;;;;32.13;27.63;99910.53;4973728;28;20086;-79
2022/08/06 07:49:29;;;;;;;14.32;2.50;;;;;;;32.05;27.52;99905.41;4972680;28;20101;-79
2022/08/06 07:51:57;;;;;;;9.85;2.45;;;;;;;31.87;27.71;99903.72;4972762;28;20050;-78
2022/08/06 07:54:29;;;;;;;7.93;2.35;;;;;;;31.97;27.39;99905.84;4972077;28;20054;-79
2022/08/06 07:56:55;;;;;;;6.15;2.08;;;;;;;32.11;27.58;99904.41;4940331;28;20051;-79
2022/08/06 07:59:21;;;;;;;8.10;2.40;;;;;;;32.35;27.36;99899.56;4988230;28;20525;-80
2022/08/06 08:01:48;;;;;;;7.10;2.67;;;;;;;32.37;26.59;99902.06;4988470;28;20053;-79
2022/08/06 08:07:02;;;;;;;13.07;3.28;;;;;;;32.55;26.59;99901.00;4977322;28;20050;-80
2022/08/06 08:09:32;;;;;;;7.32;2.50;;;;;;;32.69;26.22;99898.72;4943558;28;20039;-78
2022/08/06 08:11:59;;;;;;;11.73;2.20;;;;;;;32.35;26.50;99899.56;4959400;28;20039;-77
2022/08/06 08:14:26;;;;;;;6.78;2.47;;;;;;;32.06;26.68;99898.78;4991191;28;20100;-79
2022/08/06 08:16:52;;;;;;;11.52;2.33;;;;;;;32.00;26.51;99891.47;4959629;28;20053;-78
2022/08/06 08:19:34;;;;;;;9.13;2.42;;;;;;;32.43;27.10;99895.56;4976222;28;20046;-80
2022/08/06 08:22:06;;;;;;;9.73;1.90;;;;;;;32.62;25.94;99893.34;4991809;28;20055;-79
2022/08/06 08:24:33;;;;;;;11.82;2.50;;;;;;;32.88;25.91;99891.78;4976714;28;20046;-79
2022/08/06 08:26:59;;;;;;;8.60;2.65;;;;;;;33.17;25.73;99895.22;4975916;28;20083;-78
2022/08/06 08:29:26;;;;;;;9.15;2.20;;;;;;;33.14;25.84;99887.44;4975708;28;20038;-78
2022/08/06 08:31:54;;;;;;;4.70;2.17;;;;;;;32.43;24.22;99890.03;4991772;28;20054;-79
2022/08/06 08:34:22;;;;;;;3.50;1.75;;;;;;;32.44;24.39;99880.63;4959174;28;20054;-80
2022/08/06 08:36:48;;;;;;;5.80;1.90;;;;;;;32.90;24.48;99884.03;4991686;28;20051;-78
2022/08/06 08:39:15;;;;;;;6.38;2.17;;;;;;;33.14;25.23;99879.16;4959137;28;20039;-78
2022/08/06 08:41:54;;;;;;;6.18;2.40;;;;;;;33.66;25.50;99881.41;4975141;28;20051;-79
2022/08/06 08:44:27;;;;;;;10.77;2.35;;;;;;;34.11;24.13;99884.91;4991787;28;20042;-81
2022/08/06 08:46:58;;;;;;;7.07;2.40;;;;;;;34.18;23.73;99882.75;4957430;28;20050;-80
2022/08/06 08:49:43;;;;;;;10.05;2.10;;;;;;;34.35;23.57;99871.50;4955834;28;20479;-79
2022/08/06 08:52:14;;;;;;;5.50;2.08;;;;;;;34.45;23.21;99869.63;4939598;29;20050;-79
2022/08/06 08:54:45;;;;;;;6.40;2.20;;;;;;;34.39;22.97;99873.47;4956049;29;20413;-79
2022/08/06 08:57:13;;;;;;;5.93;2.40;;;;;;;34.27;23.13;99881.16;4955723;29;20051;-79
2022/08/06 08:59:40;;;;;;;10.55;2.13;;;;;;;34.30;23.06;99864.81;4939543;29;20047;-79
2022/08/06 09:02:11;;;;;;;5.80;2.20;;;;;;;34.14;23.25;99867.72;4957213;28;20051;-79
2022/08/06 09:04:37;;;;;;;9.15;2.50;;;;;;;33.92;23.24;99868.63;4971720;28;20058;-78
2022/08/06 09:07:03;;;;;;;19.92;2.75;;;;;;;33.46;23.77;99867.31;4955633;29;20080;-78
2022/08/06 09:09:32;;;;;;;14.35;2.42;;;;;;;33.44;23.82;99870.34;4955456;29;20051;-79
2022/08/06 09:11:59;;;;;;;10.63;2.60;;;;;;;34.03;23.97;99869.56;4971580;28;20388;-78
2022/08/06 09:14:25;;;;;;;6.20;2.30;;;;;;;34.02;23.13;99874.28;4955369;29;20065;-79
2022/08/06 09:16:51;;;;;;;11.43;2.33;;;;;;;34.05;23.60;99862.69;4954041;28;20496;-79
2022/08/06 09:19:17;;;;;;;4.05;2.30;;;;;;;33.96;23.57;99858.66;4955375;29;20051;-78
2022/08/06 09:21:43;;;;;;;9.88;2.42;;;;;;;34.05;23.55;99859.91;4956574;28;20077;-79
2022/08/06 09:24:09;;;;;;;9.18;2.00;;;;;;;33.87;23.62;99871.34;4955321;29;20095;-80
2022/08/06 09:26:35;;;;;;;12.48;2.47;;;;;;;33.71;23.04;99864.00;4971125;28;20094;-77
2022/08/06 09:29:01;;;;;;;11.45;2.42;;;;;;;32.98;23.52;99863.41;4956418;28;20047;-78
2022/08/06 09:31:27;;;;;;;10.27;2.55;;;;;;;32.97;23.07;99859.81;4955530;29;20046;-78
2022/08/06 09:34:05;;;;;;;9.90;2.33;;;;;;;33.35;22.94;99855.25;4971138;28;20492;-78
2022/08/06 09:36:45;;;;;;;6.43;2.03;;;;;;;33.62;22.73;99851.69;4939081;29;20054;-78
2022/08/06 09:39:12;;;;;;;6.57;2.30;;;;;;;33.93;22.14;99834.25;4955017;29;20055;-78
2022/08/06 09:41:48;;;;;;;6.25;2.45;;;;;;;34.19;22.00;99845.56;4956213;28;20054;-78
2022/08/06 09:44:14;;;;;;;5.78;2.22;;;;;;;34.52;21.33;99836.94;4970468;28;20116;-79
2022/08/06 09:46:42;;;;;;;11.23;1.92;;;;;;;34.80;21.08;99840.44;4974104;28;20593;-80
2022/08/06 09:49:10;;;;;;;6.38;2.40;;;;;;;34.85;21.06;99837.69;4957870;28;20528;-78
2022/08/06 09:51:37;;;;;;;13.18;1.95;;;;;;;35.17;21.35;99836.72;4974111;28;20506;-78
2022/08/06 09:54:05;;;;;;;7.50;2.10;;;;;;;35.86;20.46;99827.97;4973650;28;20043;-78
2022/08/06 09:56:31;;;;;;;9.25;2.00;;;;;;;36.21;20.10;99837.44;4973875;28;20145;-78
2022/08/06 09:59:06;;;;;;;9.18;2.15;;;;;;;36.56;19.96;99835.72;4975088;28;20138;-77
2022/08/06 10:01:43;;;;;;;5.13;1.90;;;;;;;36.10;20.17;99838.56;4974808;28;20043;-79
2022/08/06 10:04:14;;;;;;;11.98;2.30;;;;;;;35.25;20.46;99845.38;4970365;28;20079;-79
2022/08/06 10:07:00;;;;;;;11.18;2.50;;;;;;;35.32;20.70;99836.78;4954636;29;20671;-79
2022/08/06 10:09:27;;;;;;;8.63;2.28;;;;;;;35.97;20.58;99820.47;4970735;28;20039;-79
2022/08/06 10:11:54;;;;;;;9.80;2.00;;;;;;;36.83;20.08;99833.44;4954540;29;20137;-79
2022/08/06 10:14:31;;;;;;;14.13;1.98;;;;;;;37.24;19.44;99832.41;4955410;28;20047;-79
2022/08/06 10:17:09;;;;;;;9.95;2.38;;;;;;;37.24;19.15;99827.69;4955849;28;20422;-79
2022/08/06 10:19:36;;;;;;;5.40;2.35;;;;;;;35.96;20.29;99830.75;4970661;28;20055;-81
2022/08/06 10:22:15;;;;;;;8.43;2.03;;;;;;;34.91;21.22;99830.22;4955308;28;20058;-89
2022/08/06 10:24:44;;;;;;;10.57;2.20;;;;;;;35.61;20.84;99826.00;4922499;29;20629;-83
2022/08/06 10:27:12;;;;;;;7.68;2.05;;;;;;;36.67;20.52;99827.09;4970385;28;20050;-88
2022/08/06 10:29:49;;;;;;;6.75;2.10;;;;;;;37.55;19.59;99822.78;4956013;28;20083;-80
2022/08/06 10:32:20;;;;;;;4.40;1.83;;;;;;;37.16;19.22;99817.13;4970583;28;20043;-80
2022/08/06 10:34:48;;;;;;;3.78;1.60;;;;;;;36.69;19.74;99821.22;4955362;28;20419;-80
2022/08/06 10:37:16;;;;;;;4.40;2.38;;;;;;;35.72;20.63;99816.56;4970323;28;20134;-81
2022/08/06 10:39:47;;;;;;;9.90;2.08;;;;;;;35.86;20.53;99816.84;4979802;28;20038;-79
2022/08/06 10:42:15;;;;;;;7.88;1.88;;;;;;;36.21;20.39;99815.19;4973062;28;20537;-79
2022/08/06 10:44:44;;;;;;;12.85;2.20;;;;;;;36.83;19.81;99829.81;4980721;28;20038;-78
2022/08/06 10:47:11;;;;;;;4.57;2.10;;;;;;;35.76;20.14;99819.63;4973206;28;20050;-78
2022/08/06 10:49:38;;;;;;;7.28;2.05;;;;;;;34.46;22.00;99817.75;4973213;28;20045;-80
2022/08/06 10:52:04;;;;;;;7.80;2.00;;;;;;;34.36;21.88;99818.50;4972869;28;20133;-79
2022/08/06 10:54:30;;;;;;;13.82;2.22;;;;;;;34.48;21.43;99826.63;4972967;28;20141;-79
2022/08/06 10:56:58;;;;;;;7.55;2.05;;;;;;;34.74;21.22;99814.56;4972912;28;20043;-80
2022/08/06 10:59:24;;;;;;;6.45;2.00;;;;;;;35.35;20.31;99825.09;4972904;28;20583;-79
2022/08/06 11:02:00;;;;;;;7.68;2.20;;;;;;;36.30;19.56;99813.50;4974968;28;20035;-79
2022/08/06 11:04:43;;;;;;;7.53;1.90;;;;;;;37.22;18.69;99820.75;4973393;28;20490;-78
2022/08/06 11:07:16;;;;;;;18.23;2.45;;;;;;;38.03;18.14;99811.00;4973802;28;20074;-77
2022/08/06 11:10:00;;;;;;;6.80;2.08;;;;;;;38.47;17.43;99810.00;4972728;28;20074;-78
2022/08/06 11:12:50;;;;;;;6.40;2.03;;;;;;;38.89;16.84;99802.84;4972844;28;20073;-79
2022/08/06 11:15:18;;;;;;;2.55;1.70;;;;;;;39.40;16.90;99810.56;4972640;28;20049;-80
2022/08/06 11:17:51;;;;;;;8.40;2.10;;;;;;;39.48;16.08;99802.28;4973012;28;20054;-81
2022/08/06 11:20:44;;;;;;;9.60;2.40;;;;;;;39.28;16.72;99799.81;4972737;28;20135;-81
2022/08/06 11:23:13;;;;;;;4.00;2.30;;;;;;;38.51;16.97;99808.28;4971133;28;20078;-86
2022/08/06 11:25:40;;;;;;;6.18;1.88;;;;;;;38.34;17.20;99790.03;4957862;28;20043;-82
2022/08/06 11:28:08;;;;;;;10.65;2.03;;;;;;;38.54;16.90;99793.72;4956803;28;20095;-81
2022/08/06 11:30:46;;;;;;;3.25;1.70;;;;;;;38.56;17.06;99792.31;4976687;28;20043;-82
2022/08/06 11:33:34;;;;;;;8.98;1.83;;;;;;;38.99;16.69;99797.13;4972891;28;20069;-82
2022/08/06 11:36:20;;;;;;;11.80;1.80;;;;;;;39.03;16.31;99801.81;4966786;28;20051;-81
2022/08/06 11:38:46;;;;;;;3.20;1.63;;;;;;;39.38;15.95;99793.22;4956058;28;20525;-82
2022/08/06 11:41:42;;;;;;;4.15;2.10;;;;;;;39.56;15.50;99798.81;4943681;28;20073;-82
2022/08/06 11:44:09;;;;;;;4.57;1.57;;;;;;;39.64;15.38;99788.06;4976456;28;20380;-82
2022/08/06 11:46:37;;;;;;;6.95;1.70;;;;;;;39.57;15.27;99789.28;4960278;28;20051;-82
2022/08/06 11:49:03;;;;;;;5.80;1.50;;;;;;;40.67;14.92;99791.56;4977902;28;20078;-81